Time;durP1;ratioP1;P1;durP2;ratioP2;P2;SDS_P1;SDS_P2;PMS_P1;PMS_P2;Temp;Humidity;BMP_temperature;BMP_pressure;BME280_temperature;BME280_humidity;BME280_pressure;Samples;Min_cycle;Max_cycle;Signal;HPM_P1;HPM_P2
2020/12/02 00:01:57;;;;;;;19.60;12.67;;;8.60;51.00;;;;;;5078462;28;20455;-87
2020/12/02 00:04:26;;;;;;;23.87;14.30;;;8.90;51.70;;;;;;5077228;28;20447;-86
2020/12/02 00:06:53;;;;;;;23.40;14.10;;;8.70;50.10;;;;;;5078286;28;20493;-86
2020/12/02 00:09:23;;;;;;;23.47;12.30;;;8.60;50.10;;;;;;5076735;28;20450;-86
2020/12/02 00:11:51;;;;;;;26.43;14.10;;;8.90;51.30;;;;;;5075833;28;20447;-86
2020/12/02 00:14:22;;;;;;;22.07;13.57;;;9.00;50.30;;;;;;5076130;28;20486;-86
2020/12/02 00:16:49;;;;;;;24.63;14.13;;;8.90;49.60;;;;;;5076407;28;20499;-86
2020/12/02 00:19:17;;;;;;;21.33;13.77;;;8.70;49.40;;;;;;5075664;28;20435;-86
2020/12/02 00:21:59;;;;;;;20.53;13.47;;;8.50;49.30;;;;;;5076394;28;20467;-86
2020/12/02 00:24:26;;;;;;;20.00;12.20;;;8.60;50.10;;;;;;5076849;28;20485;-86
2020/12/02 00:26:52;;;;;;;22.17;13.83;;;8.50;49.30;;;;;;5077293;28;20489;-86
2020/12/02 00:29:19;;;;;;;23.47;13.60;;;8.40;49.20;;;;;;5079177;28;20435;-87
2020/12/02 00:31:46;;;;;;;21.30;12.90;;;7.60;49.90;;;;;;5080046;28;20475;-87
2020/12/02 00:34:12;;;;;;;24.87;14.13;;;7.60;50.30;;;;;;5077629;28;20439;-87
2020/12/02 00:36:40;;;;;;;23.27;13.67;;;7.70;50.10;;;;;;5076867;28;21042;-87
2020/12/02 00:39:08;;;;;;;24.10;14.70;;;7.50;50.20;;;;;;5076106;28;20450;-87
2020/12/02 00:41:34;;;;;;;22.03;13.27;;;7.20;50.90;;;;;;5076381;28;20964;-87
2020/12/02 00:44:01;;;;;;;27.97;15.17;;;7.30;52.50;;;;;;5077118;28;20541;-86
2020/12/02 00:46:28;;;;;;;25.93;14.70;;;7.60;51.10;;;;;;5076782;28;20471;-87
2020/12/02 00:48:54;;;;;;;22.27;13.43;;;7.90;50.80;;;;;;5076179;28;20449;-86
2020/12/02 00:51:21;;;;;;;20.17;12.13;;;7.60;51.80;;;;;;5075913;28;20533;-87
2020/12/02 00:53:48;;;;;;;37.23;19.83;;;7.80;52.30;;;;;;5076910;28;20439;-87
2020/12/02 00:56:16;;;;;;;17.23;11.37;;;8.30;51.50;;;;;;5075670;28;20509;-86
2020/12/02 00:58:56;;;;;;;25.83;15.43;;;8.70;52.20;;;;;;5075686;28;20901;-86
2020/12/02 01:01:39;;;;;;;24.90;15.30;;;9.20;49.80;;;;;;5076090;28;20411;-86
2020/12/02 01:04:14;;;;;;;26.43;14.80;;;9.30;49.30;;;;;;5075476;28;20428;-86
2020/12/02 01:06:41;;;;;;;21.03;13.57;;;9.40;50.00;;;;;;5075238;28;20549;-86
2020/12/02 01:09:09;;;;;;;18.83;11.33;;;9.70;50.30;;;;;;5076489;28;20852;-87
2020/12/02 01:11:37;;;;;;;25.80;14.13;;;9.70;49.30;;;;;;5075380;28;20552;-86
2020/12/02 01:14:08;;;;;;;19.97;12.87;;;9.80;48.50;;;;;;5075112;28;20477;-87
2020/12/02 01:16:37;;;;;;;21.63;13.60;;;9.30;47.50;;;;;;5075554;28;20610;-86
2020/12/02 01:19:05;;;;;;;23.00;14.33;;;8.60;47.60;;;;;;5085495;28;20473;-86
2020/12/02 01:21:36;;;;;;;23.90;14.53;;;8.00;49.30;;;;;;5076245;28;20435;-87
2020/12/02 01:24:07;;;;;;;26.60;13.23;;;7.20;50.50;;;;;;5076138;28;20442;-86
2020/12/02 01:26:42;;;;;;;23.57;13.90;;;7.30;52.80;;;;;;5076013;28;20475;-86
2020/12/02 01:29:18;;;;;;;23.53;13.50;;;7.30;51.10;;;;;;5075485;28;20770;-86
2020/12/02 01:31:48;;;;;;;27.40;14.73;;;6.80;52.60;;;;;;5075037;28;20471;-86
2020/12/02 01:34:15;;;;;;;21.37;12.30;;;6.80;52.50;;;;;;5074925;28;20451;-86
2020/12/02 01:37:07;;;;;;;30.57;16.63;;;6.90;54.00;;;;;;5075148;28;20494;-86
2020/12/02 01:39:39;;;;;;;31.70;16.40;;;6.90;52.20;;;;;;5074827;28;20420;-86
2020/12/02 01:42:10;;;;;;;26.93;15.73;;;5.50;55.10;;;;;;5074504;28;20495;-86
2020/12/02 01:44:37;;;;;;;33.20;18.30;;;5.40;55.80;;;;;;5074830;28;20425;-86
2020/12/02 01:47:08;;;;;;;33.53;19.67;;;5.20;57.20;;;;;;5074900;28;20471;-86
2020/12/02 01:49:43;;;;;;;35.30;19.63;;;5.30;56.70;;;;;;5074450;28;20428;-87
2020/12/02 01:52:27;;;;;;;32.30;17.80;;;5.50;56.20;;;;;;5074540;28;20469;-87
2020/12/02 01:54:58;;;;;;;31.40;16.70;;;5.40;56.20;;;;;;5074542;28;20421;-87
2020/12/02 01:57:31;;;;;;;34.17;18.43;;;5.20;57.00;;;;;;5074604;28;20451;-86
2020/12/02 02:00:08;;;;;;;42.17;23.20;;;5.00;58.30;;;;;;5074014;28;20483;-86
2020/12/02 02:02:39;;;;;;;35.07;18.80;;;5.40;57.50;;;;;;5074033;28;20431;-87
2020/12/02 02:05:10;;;;;;;45.03;19.40;;;5.50;56.70;;;;;;5075154;28;20441;-86
2020/12/02 02:07:38;;;;;;;40.00;19.50;;;5.60;56.30;;;;;;5076231;28;20455;-86
2020/12/02 02:10:16;;;;;;;46.07;19.13;;;5.20;57.10;;;;;;5076370;28;20520;-86
2020/12/02 02:13:11;;;;;;;37.13;18.97;;;5.40;56.80;;;;;;5076456;28;20429;-86
2020/12/02 02:15:43;;;;;;;42.80;20.63;;;5.10;58.00;;;;;;5071169;28;20967;-87
2020/12/02 02:18:14;;;;;;;41.40;21.63;;;5.80;57.70;;;;;;5081448;28;20461;-86
2020/12/02 02:20:44;;;;;;;45.27;22.73;;;6.40;55.60;;;;;;5078308;28;20451;-87
2020/12/02 02:23:12;;;;;;;40.43;21.70;;;6.90;54.90;;;;;;5077743;28;20470;-87
2020/12/02 02:25:42;;;;;;;43.73;22.97;;;6.90;53.20;;;;;;5077772;28;20497;-86
2020/12/02 02:28:09;;;;;;;46.20;22.57;;;6.30;53.50;;;;;;5077836;28;20526;-86
2020/12/02 02:30:36;;;;;;;42.87;21.60;;;6.10;55.20;;;;;;5077422;28;20522;-86
2020/12/02 02:33:03;;;;;;;44.73;21.03;;;5.80;55.40;;;;;;5078747;28;20446;-86
2020/12/02 02:35:30;;;;;;;38.50;20.27;;;5.50;56.00;;;;;;5078188;28;20556;-86
2020/12/02 02:37:57;;;;;;;53.07;21.50;;;5.40;58.80;;;;;;5079212;28;20489;-86
2020/12/02 02:40:23;;;;;;;45.10;21.23;;;5.10;58.40;;;;;;5084215;28;20425;-86
2020/12/02 02:42:51;;;;;;;48.63;21.30;;;5.50;57.60;;;;;;5097286;28;20442;-83
2020/12/02 02:45:23;;;;;;;52.90;21.80;;;5.80;56.80;;;;;;5097320;28;20450;-85
2020/12/02 02:47:51;;;;;;;44.30;20.47;;;5.70;57.50;;;;;;5090258;28;20458;-86
2020/12/02 02:50:20;;;;;;;54.73;25.23;;;6.00;57.10;;;;;;5078649;28;20505;-86
2020/12/02 02:52:47;;;;;;;55.77;21.50;;;5.90;56.40;;;;;;5096560;28;20448;-85
2020/12/02 02:55:17;;;;;;;44.90;19.97;;;5.60;56.70;;;;;;5096503;28;20441;-85
2020/12/02 02:57:44;;;;;;;52.07;22.53;;;5.40;57.30;;;;;;5092090;28;20515;-83
2020/12/02 03:00:15;;;;;;;67.40;22.60;;;5.80;56.50;;;;;;5097082;28;20446;-85
2020/12/02 03:02:43;;;;;;;48.53;22.03;;;5.60;56.40;;;;;;5078128;28;20513;-86
2020/12/02 03:05:11;;;;;;;51.13;20.20;;;5.30;57.40;;;;;;5074575;28;20477;-86
2020/12/02 03:07:41;;;;;;;57.07;25.80;;;5.00;58.70;;;;;;5075751;28;20463;-86
2020/12/02 03:10:08;;;;;;;53.10;22.47;;;5.30;58.50;;;;;;5075535;28;20478;-86
2020/12/02 03:12:34;;;;;;;52.90;21.47;;;5.60;56.70;;;;;;5076527;28;20443;-86
2020/12/02 03:15:01;;;;;;;47.07;21.30;;;5.80;56.20;;;;;;5088532;28;20439;-86
2020/12/02 03:17:28;;;;;;;44.40;20.30;;;6.40;55.50;;;;;;5096715;28;20495;-85
2020/12/02 03:20:05;;;;;;;46.03;20.50;;;6.00;55.20;;;;;;5096775;28;20450;-85
2020/12/02 03:22:32;;;;;;;43.97;20.10;;;6.10;55.30;;;;;;5097074;28;20410;-85
2020/12/02 03:25:00;;;;;;;47.60;23.07;;;5.90;56.60;;;;;;5098569;28;20620;-85
2020/12/02 03:27:26;;;;;;;44.47;21.37;;;5.70;56.10;;;;;;5100590;28;20447;-84
2020/12/02 03:29:53;;;;;;;46.10;22.17;;;5.60;56.80;;;;;;5100477;28;20431;-85
2020/12/02 03:32:20;;;;;;;42.10;17.97;;;5.50;57.00;;;;;;5097612;28;20455;-86
2020/12/02 03:34:47;;;;;;;36.00;18.00;;;5.30;58.40;;;;;;5086246;28;20452;-85
2020/12/02 03:37:14;;;;;;;45.93;19.53;;;5.70;58.50;;;;;;5100445;28;20469;-85
2020/12/02 03:39:41;;;;;;;44.60;20.83;;;6.00;55.90;;;;;;5100156;28;20455;-85
2020/12/02 03:42:07;;;;;;;42.20;20.37;;;6.00;56.40;;;;;;5100338;28;20473;-85
2020/12/02 03:44:34;;;;;;;49.83;21.53;;;5.80;55.80;;;;;;5100367;28;20430;-85
2020/12/02 03:47:00;;;;;;;41.93;20.27;;;5.30;57.50;;;;;;5100064;28;20461;-84
2020/12/02 03:49:27;;;;;;;40.50;20.73;;;4.60;59.50;;;;;;5100009;28;20457;-85
2020/12/02 03:51:53;;;;;;;46.70;21.40;;;4.50;60.30;;;;;;5099794;28;20466;-85
2020/12/02 03:54:20;;;;;;;46.17;20.23;;;4.30;61.20;;;;;;5099708;28;20446;-85
2020/12/02 03:56:47;;;;;;;44.77;20.13;;;4.30;61.70;;;;;;5099482;28;20552;-85
2020/12/02 03:59:13;;;;;;;39.67;20.20;;;4.80;60.30;;;;;;5098994;28;20448;-85
2020/12/02 04:01:40;;;;;;;44.77;19.87;;;4.40;60.70;;;;;;5090067;28;20786;-86
2020/12/02 04:04:06;;;;;;;38.37;19.00;;;4.00;62.20;;;;;;5082885;28;20473;-86
2020/12/02 04:06:33;;;;;;;38.20;21.47;;;4.20;63.00;;;;;;5084268;28;20541;-85
2020/12/02 04:09:01;;;;;;;38.60;18.17;;;4.40;61.70;;;;;;5098849;28;20535;-85
2020/12/02 04:11:28;;;;;;;41.33;20.53;;;4.60;61.10;;;;;;5099378;28;20468;-85
2020/12/02 04:13:54;;;;;;;41.80;20.10;;;4.90;59.70;;;;;;5099281;28;20483;-86
2020/12/02 04:16:21;;;;;;;97.60;37.50;;;5.10;59.90;;;;;;5098785;28;20547;-85
2020/12/02 04:18:47;;;;;;;42.50;20.67;;;5.10;58.70;;;;;;5098784;28;20442;-85
2020/12/02 04:21:14;;;;;;;44.93;22.47;;;5.20;58.50;;;;;;5098082;28;20505;-85
2020/12/02 04:23:40;;;;;;;38.03;19.70;;;5.20;58.80;;;;;;5089944;28;20488;-86
2020/12/02 04:26:07;;;;;;;36.67;19.30;;;4.90;59.70;;;;;;5082884;28;20458;-86
2020/12/02 04:28:34;;;;;;;38.63;20.20;;;5.30;57.80;;;;;;5095059;28;20444;-86
2020/12/02 04:31:01;;;;;;;36.40;19.50;;;4.80;60.30;;;;;;5076290;28;20479;-86
2020/12/02 04:33:27;;;;;;;37.43;20.37;;;5.30;58.90;;;;;;5076525;28;20494;-86
2020/12/02 04:35:54;;;;;;;33.43;18.80;;;5.20;57.90;;;;;;5075976;28;20544;-86
2020/12/02 04:38:20;;;;;;;39.23;20.13;;;4.90;59.00;;;;;;5077508;28;20450;-86
2020/12/02 04:40:47;;;;;;;34.23;17.90;;;4.40;59.80;;;;;;5077289;28;20446;-86
2020/12/02 04:43:20;;;;;;;33.67;17.80;;;4.00;61.60;;;;;;5077492;28;20441;-86
2020/12/02 04:45:48;;;;;;;36.47;19.37;;;4.20;62.10;;;;;;5086513;28;20426;-86
2020/12/02 04:48:18;;;;;;;39.97;20.67;;;4.60;60.00;;;;;;5077951;28;20504;-86
2020/12/02 04:50:45;;;;;;;39.23;18.87;;;4.50;61.30;;;;;;5098559;28;20486;-85
2020/12/02 04:53:15;;;;;;;40.40;19.60;;;4.70;60.10;;;;;;5098083;28;20467;-85
2020/12/02 04:55:43;;;;;;;39.80;19.37;;;4.50;60.90;;;;;;5098401;28;20422;-85
2020/12/02 04:58:19;;;;;;;38.33;19.93;;;4.80;59.90;;;;;;5094286;28;20446;-86
2020/12/02 05:00:46;;;;;;;34.47;18.70;;;4.70;60.40;;;;;;5097634;28;20434;-86
2020/12/02 05:03:15;;;;;;;35.53;18.97;;;4.40;61.00;;;;;;5098029;28;20485;-85
2020/12/02 05:05:42;;;;;;;39.73;19.63;;;4.20;63.00;;;;;;5086277;28;20443;-86
2020/12/02 05:08:27;;;;;;;41.37;19.33;;;4.20;62.10;;;;;;5076377;28;20471;-86
2020/12/02 05:10:55;;;;;;;40.80;19.87;;;4.50;60.90;;;;;;5076037;28;20478;-86
2020/12/02 05:13:22;;;;;;;49.23;20.90;;;4.60;61.10;;;;;;5075869;28;20432;-86
2020/12/02 05:16:03;;;;;;;39.70;20.90;;;4.50;60.20;;;;;;5075987;28;20461;-86
2020/12/02 05:18:29;;;;;;;37.90;19.30;;;4.60;60.70;;;;;;5081250;28;20435;-86
2020/12/02 05:21:19;;;;;;;34.80;19.53;;;4.80;59.60;;;;;;5091418;28;20419;-86
2020/12/02 05:24:00;;;;;;;41.07;21.10;;;4.70;60.10;;;;;;5075318;28;20837;-86
2020/12/02 05:26:28;;;;;;;43.50;20.90;;;5.10;59.90;;;;;;5073579;28;20514;-87
2020/12/02 05:28:54;;;;;;;39.60;19.90;;;4.50;59.80;;;;;;5074797;28;20499;-87
2020/12/02 05:31:26;;;;;;;37.33;19.90;;;4.60;59.50;;;;;;5074917;28;20495;-87
2020/12/02 05:33:52;;;;;;;35.60;18.70;;;4.70;59.60;;;;;;5074444;28;20427;-87
2020/12/02 05:36:23;;;;;;;38.30;19.67;;;4.50;60.50;;;;;;5074413;28;20497;-87
2020/12/02 05:38:54;;;;;;;38.97;19.83;;;4.60;62.20;;;;;;5078884;28;20453;-87
2020/12/02 05:41:21;;;;;;;40.93;19.77;;;5.10;59.90;;;;;;5093770;28;20451;-87
2020/12/02 05:43:54;;;;;;;44.37;20.60;;;5.40;58.10;;;;;;5093656;28;20417;-87
2020/12/02 05:46:25;;;;;;;40.50;18.63;;;5.30;58.60;;;;;;5090722;28;20482;-87
2020/12/02 05:48:59;;;;;;;38.73;19.17;;;5.70;57.20;;;;;;5090664;28;20432;-87
2020/12/02 05:51:26;;;;;;;32.20;16.30;;;5.90;55.70;;;;;;5090280;28;20492;-87
2020/12/02 05:53:58;;;;;;;24.07;13.40;;;6.30;57.50;;;;;;5080060;28;20468;-87
2020/12/02 05:56:24;;;;;;;33.80;16.80;;;6.60;57.20;;;;;;5078103;28;20524;-87
2020/12/02 05:58:51;;;;;;;40.73;21.10;;;7.20;56.70;;;;;;5079675;28;20468;-87
2020/12/02 06:01:20;;;;;;;28.70;16.10;;;7.60;54.90;;;;;;5075166;28;20447;-87
2020/12/02 06:03:53;;;;;;;25.03;14.87;;;8.30;54.20;;;;;;5074739;28;20499;-87
2020/12/02 06:06:20;;;;;;;23.93;15.40;;;8.90;53.10;;;;;;5073102;28;20489;-87
2020/12/02 06:08:50;;;;;;;20.90;13.00;;;9.40;51.50;;;;;;5073668;28;20443;-87
2020/12/02 06:11:27;;;;;;;25.50;14.23;;;9.90;51.80;;;;;;5073770;28;20528;-87
2020/12/02 06:13:55;;;;;;;19.67;11.90;;;10.10;49.60;;;;;;5074871;28;20416;-88
2020/12/02 06:16:40;;;;;;;17.83;10.90;;;10.60;50.00;;;;;;5075465;28;20558;-87
2020/12/02 06:19:20;;;;;;;18.47;11.37;;;11.00;49.10;;;;;;5074775;28;20893;-88
2020/12/02 06:21:48;;;;;;;22.70;13.97;;;11.10;48.90;;;;;;5074471;28;20485;-88
2020/12/02 06:24:39;;;;;;;18.90;12.20;;;10.80;47.30;;;;;;5074614;28;20443;-88
2020/12/02 06:27:43;;;;;;;33.60;17.33;;;10.50;48.50;;;;;;5074269;28;20513;-87
2020/12/02 06:30:22;;;;;;;22.97;14.40;;;10.10;46.80;;;;;;5076113;28;20431;-87
2020/12/02 06:33:00;;;;;;;18.17;11.00;;;10.10;46.60;;;;;;5074539;28;20480;-88
2020/12/02 06:35:27;;;;;;;18.37;11.93;;;10.10;47.80;;;;;;5073660;28;20438;-88
2020/12/02 06:38:12;;;;;;;19.77;12.80;;;9.70;46.60;;;;;;5074212;28;20820;-87
2020/12/02 06:40:51;;;;;;;21.83;12.37;;;9.30;46.90;;;;;;5075425;28;20419;-88
2020/12/02 06:43:23;;;;;;;26.23;12.70;;;8.70;47.10;;;;;;5074874;28;20419;-87
2020/12/02 06:45:49;;;;;;;22.37;11.93;;;8.00;47.50;;;;;;5074710;28;20428;-88
2020/12/02 06:48:35;;;;;;;18.63;11.67;;;8.30;49.10;;;;;;5074132;28;20963;-88
2020/12/02 06:51:09;;;;;;;24.20;13.27;;;7.50;48.50;;;;;;5074497;28;20483;-88
2020/12/02 06:53:35;;;;;;;29.50;16.00;;;7.20;50.10;;;;;;5074377;28;20454;-88
2020/12/02 06:56:05;;;;;;;26.20;15.53;;;7.50;49.80;;;;;;5074312;28;20513;-88
2020/12/02 06:58:32;;;;;;;22.40;13.80;;;7.20;51.20;;;;;;5073561;28;20447;-88
2020/12/02 07:01:01;;;;;;;19.10;11.23;;;7.30;50.70;;;;;;5077057;28;20932;-88
2020/12/02 07:03:32;;;;;;;19.80;11.93;;;7.50;53.00;;;;;;5077603;28;20454;-88
2020/12/02 07:06:10;;;;;;;22.70;12.40;;;8.40;52.40;;;;;;5077681;28;20431;-88
2020/12/02 07:08:39;;;;;;;20.40;10.57;;;9.20;50.70;;;;;;5077575;28;20416;-88
2020/12/02 07:11:13;;;;;;;14.67;9.17;;;9.30;48.80;;;;;;5077250;28;20988;-88
2020/12/02 07:13:41;;;;;;;14.57;9.20;;;8.80;46.70;;;;;;5078488;28;20443;-88
2020/12/02 07:16:18;;;;;;;21.17;10.77;;;8.60;47.00;;;;;;5078211;28;20489;-88
2020/12/02 07:18:47;;;;;;;17.97;10.50;;;8.10;45.90;;;;;;5078007;28;20499;-88
2020/12/02 07:21:26;;;;;;;16.10;9.40;;;7.60;47.60;;;;;;5087897;28;20439;-88
2020/12/02 07:23:54;;;;;;;18.50;10.17;;;7.70;48.60;;;;;;5100269;28;20469;-86
2020/12/02 07:26:22;;;;;;;19.50;10.50;;;7.80;48.60;;;;;;5100405;28;20447;-87
2020/12/02 07:28:56;;;;;;;28.13;15.80;;;8.20;47.80;;;;;;5099868;28;20504;-87
2020/12/02 07:31:24;;;;;;;19.57;12.10;;;7.80;47.10;;;;;;5100170;28;20450;-85
2020/12/02 07:34:03;;;;;;;19.50;11.13;;;8.00;49.80;;;;;;5098692;28;20450;-87
2020/12/02 07:36:32;;;;;;;29.13;15.00;;;8.10;47.20;;;;;;5079272;28;20475;-87
2020/12/02 07:39:01;;;;;;;30.00;14.23;;;8.00;47.90;;;;;;5080451;28;20576;-87
2020/12/02 07:41:28;;;;;;;36.13;17.63;;;7.90;50.90;;;;;;5086855;28;20443;-87
2020/12/02 07:43:55;;;;;;;27.27;15.50;;;8.30;48.10;;;;;;5100244;28;20529;-87
2020/12/02 07:46:23;;;;;;;28.93;18.03;;;7.90;46.60;;;;;;5100029;28;20470;-86
2020/12/02 07:48:53;;;;;;;24.90;15.37;;;7.80;48.60;;;;;;5100351;28;20433;-86
2020/12/02 07:51:24;;;;;;;105.37;44.00;;;7.30;48.50;;;;;;5094557;28;20525;-87
2020/12/02 07:54:00;;;;;;;86.70;34.73;;;7.00;49.30;;;;;;5084872;28;20501;-87
2020/12/02 07:56:31;;;;;;;66.07;30.80;;;7.00;50.10;;;;;;5081284;28;20458;-88
2020/12/02 07:59:05;;;;;;;39.63;18.07;;;7.10;49.30;;;;;;5081626;28;20424;-87
2020/12/02 08:02:05;;;;;;;41.30;22.00;;;7.50;51.00;;;;;;5080652;28;20411;-88
2020/12/02 08:04:39;;;;;;;25.27;14.07;;;7.80;48.60;;;;;;5083936;28;20397;-87
2020/12/02 08:07:08;;;;;;;24.30;13.23;;;8.00;51.80;;;;;;5099941;28;20447;-86
2020/12/02 08:09:38;;;;;;;22.17;12.80;;;8.50;49.20;;;;;;5100051;28;20512;-85
2020/12/02 08:12:08;;;;;;;18.23;11.77;;;8.50;49.20;;;;;;5098868;28;20465;-87
2020/12/02 08:14:38;;;;;;;24.13;11.83;;;8.80;48.70;;;;;;5081188;28;20474;-87
2020/12/02 08:17:12;;;;;;;19.13;11.10;;;7.90;47.40;;;;;;5099657;28;20459;-84
2020/12/02 08:19:41;;;;;;;22.73;12.90;;;6.80;50.00;;;;;;5099804;28;20425;-85
2020/12/02 08:22:19;;;;;;;24.50;12.87;;;5.90;52.20;;;;;;5099341;28;20450;-86
2020/12/02 08:24:47;;;;;;;22.40;12.27;;;6.40;53.90;;;;;;5099689;28;20416;-84
2020/12/02 08:27:16;;;;;;;20.70;12.07;;;7.30;52.40;;;;;;5079594;28;20517;-87
2020/12/02 08:29:48;;;;;;;23.50;13.37;;;7.20;51.90;;;;;;5075870;28;20502;-87
2020/12/02 08:32:21;;;;;;;22.57;12.50;;;7.50;51.20;;;;;;5075561;28;20559;-87
2020/12/02 08:34:47;;;;;;;19.50;11.07;;;7.60;52.10;;;;;;5075497;28;20439;-88
2020/12/02 08:37:33;;;;;;;20.73;11.80;;;8.30;51.80;;;;;;5075741;28;20455;-88
2020/12/02 08:40:27;;;;;;;19.90;12.13;;;8.70;50.20;;;;;;5075627;28;20432;-88
2020/12/02 08:42:54;;;;;;;20.43;11.93;;;9.00;49.70;;;;;;5075743;28;20477;-87
2020/12/02 08:45:23;;;;;;;20.20;12.03;;;9.50;50.10;;;;;;5076656;28;20443;-88
2020/12/02 08:47:53;;;;;;;19.90;11.20;;;9.80;49.20;;;;;;5076303;28;20476;-88
2020/12/02 08:50:26;;;;;;;17.73;9.77;;;9.70;46.40;;;;;;5076417;28;20447;-87
2020/12/02 08:52:54;;;;;;;18.10;10.80;;;9.60;46.40;;;;;;5076170;28;20563;-86
2020/12/02 08:55:22;;;;;;;15.43;9.30;;;9.30;44.00;;;;;;5076597;28;20435;-87
2020/12/02 08:57:49;;;;;;;12.27;8.07;;;9.00;44.50;;;;;;5076404;28;20977;-86
2020/12/02 09:00:16;;;;;;;14.63;8.80;;;8.70;44.10;;;;;;5076553;28;20439;-86
2020/12/02 09:02:43;;;;;;;13.33;8.40;;;8.40;44.80;;;;;;5075198;28;20913;-87
2020/12/02 09:05:10;;;;;;;14.07;8.90;;;8.50;45.60;;;;;;5075151;28;20447;-87
2020/12/02 09:07:36;;;;;;;11.30;6.70;;;8.90;47.90;;;;;;5074979;28;20506;-87
2020/12/02 09:10:03;;;;;;;15.57;8.50;;;9.70;47.90;;;;;;5075759;28;20459;-87
2020/12/02 09:12:31;;;;;;;11.17;6.40;;;10.30;43.70;;;;;;5075477;28;20532;-87
2020/12/02 09:14:57;;;;;;;11.73;7.40;;;10.30;45.00;;;;;;5075331;28;20496;-88
2020/12/02 09:17:24;;;;;;;10.23;7.07;;;10.40;44.80;;;;;;5074237;28;20467;-87
2020/12/02 09:19:51;;;;;;;8.63;5.97;;;10.90;44.10;;;;;;5075086;28;20497;-87
2020/12/02 09:22:17;;;;;;;10.80;6.33;;;10.50;38.80;;;;;;5074690;28;20499;-87
2020/12/02 09:24:44;;;;;;;14.70;8.60;;;10.00;42.30;;;;;;5075066;28;20956;-87
2020/12/02 09:27:11;;;;;;;12.00;7.80;;;9.50;41.50;;;;;;5075785;28;20467;-87
2020/12/02 09:29:38;;;;;;;13.47;8.03;;;8.40;42.70;;;;;;5075787;28;20462;-87
2020/12/02 09:32:05;;;;;;;23.93;12.67;;;7.90;44.60;;;;;;5077540;28;20484;-86
2020/12/02 09:34:32;;;;;;;16.00;8.60;;;7.90;45.10;;;;;;5074954;28;20960;-87
2020/12/02 09:36:59;;;;;;;15.10;9.23;;;7.90;44.20;;;;;;5074376;28;20558;-87
2020/12/02 09:39:27;;;;;;;13.50;7.70;;;7.80;44.50;;;;;;5074134;28;20435;-87
2020/12/02 09:42:34;;;;;;;21.57;11.97;;;7.90;44.60;;;;;;5074483;28;20478;-86
2020/12/02 09:45:05;;;;;;;23.40;11.77;;;7.50;46.70;;;;;;5066023;28;20995;-87
2020/12/02 09:47:32;;;;;;;24.67;12.43;;;7.10;48.10;;;;;;5074867;28;20525;-87
2020/12/02 09:49:58;;;;;;;21.40;12.23;;;7.10;49.10;;;;;;5075133;28;20487;-87
2020/12/02 09:52:45;;;;;;;31.30;13.10;;;7.00;48.00;;;;;;5074627;28;20490;-87
2020/12/02 09:55:15;;;;;;;25.43;12.90;;;6.90;49.80;;;;;;5075388;28;20420;-87
2020/12/02 09:57:42;;;;;;;25.00;14.87;;;7.00;48.20;;;;;;5074022;28;20495;-87
2020/12/02 10:00:11;;;;;;;21.80;12.47;;;7.00;49.00;;;;;;5073651;28;20447;-88
2020/12/02 10:03:15;;;;;;;26.43;13.20;;;7.10;48.90;;;;;;5073928;28;20875;-87
2020/12/02 10:05:57;;;;;;;24.20;12.40;;;7.00;48.40;;;;;;5074090;28;20428;-87
2020/12/02 10:08:39;;;;;;;27.50;14.53;;;6.80;49.20;;;;;;5074000;28;20526;-87
2020/12/02 10:11:16;;;;;;;24.87;14.07;;;7.00;48.70;;;;;;5074035;28;20858;-87
2020/12/02 10:14:15;;;;;;;22.07;12.47;;;6.60;48.90;;;;;;5094672;28;20434;-86
2020/12/02 10:16:53;;;;;;;27.03;13.83;;;6.60;49.20;;;;;;5078402;28;20463;-88
2020/12/02 10:19:53;;;;;;;28.50;13.73;;;6.60;49.50;;;;;;5073365;28;20463;-88
2020/12/02 10:22:58;;;;;;;29.67;15.30;;;6.20;50.00;;;;;;5075572;28;20900;-87
2020/12/02 10:25:44;;;;;;;24.70;13.47;;;6.00;50.00;;;;;;5055414;28;20450;-88
2020/12/02 10:28:22;;;;;;;22.50;11.03;;;5.60;51.90;;;;;;5073226;28;20408;-88
2020/12/02 10:31:02;;;;;;;20.33;11.90;;;4.90;52.10;;;;;;5073633;28;20443;-88
2020/12/02 10:34:01;;;;;;;25.40;14.20;;;4.50;53.30;;;;;;5074290;28;20453;-88
2020/12/02 10:36:29;;;;;;;31.90;13.03;;;4.90;53.00;;;;;;5062518;28;20475;-87
2020/12/02 10:38:59;;;;;;;29.00;17.07;;;4.70;53.10;;;;;;5077498;28;20537;-92
2020/12/02 10:41:35;;;;;;;30.40;14.50;;;5.10;53.10;;;;;;5076191;28;20461;-88
2020/12/02 10:44:16;;;;;;;25.77;15.60;;;5.10;52.10;;;;;;5078173;28;20476;-88
2020/12/02 10:47:10;;;;;;;25.07;14.67;;;5.10;52.90;;;;;;5077732;28;20477;-87
2020/12/02 10:49:38;;;;;;;28.00;15.30;;;5.60;51.90;;;;;;5078069;28;20447;-87
2020/12/02 10:52:05;;;;;;;27.30;13.73;;;5.30;52.50;;;;;;5079457;28;20563;-88
2020/12/02 10:54:35;;;;;;;26.43;14.07;;;5.10;52.60;;;;;;5098343;28;20430;-84
2020/12/02 10:57:10;;;;;;;31.80;15.10;;;5.00;52.70;;;;;;5088877;28;20846;-88
2020/12/02 10:59:36;;;;;;;36.50;17.60;;;5.70;52.10;;;;;;5080231;28;20418;-87
2020/12/02 11:02:11;;;;;;;24.90;14.20;;;6.30;50.70;;;;;;5083393;28;20443;-87
2020/12/02 11:04:38;;;;;;;30.80;15.97;;;5.80;50.60;;;;;;5079749;28;20414;-87
2020/12/02 11:07:14;;;;;;;35.40;16.17;;;5.80;51.10;;;;;;5078050;28;20467;-87
2020/12/02 11:09:50;;;;;;;35.53;14.70;;;5.70;50.50;;;;;;5078491;28;20476;-87
2020/12/02 11:12:40;;;;;;;29.37;14.53;;;5.80;50.80;;;;;;5076830;28;20478;-87
2020/12/02 11:15:26;;;;;;;35.47;17.80;;;6.10;50.30;;;;;;5076432;28;20439;-87
2020/12/02 11:18:21;;;;;;;25.37;14.83;;;6.50;49.00;;;;;;5076916;28;20482;-87
2020/12/02 11:20:53;;;;;;;23.40;13.10;;;6.50;48.60;;;;;;5071465;28;20925;-87
2020/12/02 11:23:45;;;;;;;39.80;17.33;;;5.60;50.50;;;;;;5076242;28;20519;-87
2020/12/02 11:26:23;;;;;;;56.90;23.50;;;5.40;51.80;;;;;;5077064;28;20447;-87
2020/12/02 11:28:50;;;;;;;34.57;17.50;;;5.70;51.10;;;;;;5077964;28;20427;-87
2020/12/02 11:31:30;;;;;;;38.30;22.43;;;5.80;50.00;;;;;;5078111;28;20458;-88
2020/12/02 11:34:07;;;;;;;30.77;14.63;;;5.90;49.90;;;;;;5079088;28;20492;-87
2020/12/02 11:36:52;;;;;;;28.90;13.80;;;5.60;50.40;;;;;;5099581;28;20526;-87
2020/12/02 11:39:32;;;;;;;33.47;16.43;;;5.10;52.30;;;;;;5080387;28;20466;-88
2020/12/02 11:42:05;;;;;;;43.17;22.47;;;4.60;53.70;;;;;;5076591;28;20825;-87
2020/12/02 11:44:39;;;;;;;29.60;16.37;;;4.90;54.10;;;;;;5076603;28;20475;-88
2020/12/02 11:47:19;;;;;;;33.60;17.60;;;5.30;53.40;;;;;;5075080;28;20463;-88
2020/12/02 11:49:53;;;;;;;37.47;17.03;;;5.40;52.40;;;;;;5080038;28;20422;-88
2020/12/02 11:52:30;;;;;;;31.70;16.50;;;5.50;51.30;;;;;;5076205;28;20971;-88
2020/12/02 11:54:57;;;;;;;43.93;17.80;;;5.10;52.50;;;;;;5076110;28;20430;-88
2020/12/02 11:57:24;;;;;;;40.50;19.30;;;5.30;51.90;;;;;;5076168;28;20526;-87
2020/12/02 11:59:53;;;;;;;41.13;21.23;;;5.20;52.60;;;;;;5076433;28;20443;-88
2020/12/02 12:02:52;;;;;;;40.93;21.10;;;5.00;53.20;;;;;;5076867;28;20452;-87
2020/12/02 12:05:24;;;;;;;35.67;18.33;;;5.10;52.90;;;;;;5064767;28;20447;-88
2020/12/02 12:08:05;;;;;;;38.60;19.10;;;5.10;52.70;;;;;;5076783;28;20492;-87
2020/12/02 12:10:36;;;;;;;37.60;18.17;;;4.60;53.60;;;;;;5076158;28;20512;-88
2020/12/02 12:13:09;;;;;;;43.73;19.60;;;4.60;53.20;;;;;;5076265;28;21068;-88
2020/12/02 12:15:39;;;;;;;35.60;17.60;;;4.50;53.80;;;;;;5076791;28;20434;-88
2020/12/02 12:18:13;;;;;;;42.90;19.13;;;4.30;54.30;;;;;;5084331;28;20464;-85
2020/12/02 12:20:43;;;;;;;33.60;16.83;;;4.00;54.70;;;;;;5088670;28;20444;-88
2020/12/02 12:23:19;;;;;;;40.17;18.80;;;4.30;55.50;;;;;;5076261;28;20437;-88
2020/12/02 12:25:46;;;;;;;39.53;18.43;;;4.60;54.80;;;;;;5076201;28;20900;-87
2020/12/02 12:28:17;;;;;;;45.53;21.97;;;4.50;54.40;;;;;;5075964;28;20847;-88
2020/12/02 12:30:44;;;;;;;37.83;19.27;;;4.60;55.10;;;;;;5075918;28;20438;-87
2020/12/02 12:33:20;;;;;;;43.93;21.00;;;4.60;53.80;;;;;;5076107;28;20920;-87
2020/12/02 12:35:55;;;;;;;45.37;19.57;;;4.50;54.00;;;;;;5076793;28;20415;-87
2020/12/02 12:38:28;;;;;;;42.37;18.43;;;4.50;53.80;;;;;;5076622;28;20422;-87
2020/12/02 12:41:01;;;;;;;49.40;22.97;;;4.00;54.70;;;;;;5077270;28;20430;-87
2020/12/02 12:43:42;;;;;;;49.93;22.60;;;4.00;55.80;;;;;;5076829;28;20884;-87
2020/12/02 12:46:15;;;;;;;44.97;20.47;;;4.10;55.20;;;;;;5078028;28;20470;-87
2020/12/02 12:48:44;;;;;;;52.13;22.63;;;4.00;55.10;;;;;;5076789;28;20844;-88
2020/12/02 12:51:12;;;;;;;47.53;21.30;;;4.10;55.50;;;;;;5076451;28;20483;-87
2020/12/02 12:53:42;;;;;;;42.80;20.63;;;3.90;55.30;;;;;;5076383;28;20464;-87
2020/12/02 12:56:12;;;;;;;57.43;25.40;;;3.60;56.60;;;;;;5076442;28;20465;-87
2020/12/02 12:58:40;;;;;;;54.83;24.20;;;4.00;56.80;;;;;;5076228;28;20431;-88
2020/12/02 13:01:09;;;;;;;54.43;23.00;;;4.20;55.40;;;;;;5076424;28;20449;-88
2020/12/02 13:03:37;;;;;;;53.97;22.93;;;4.20;55.40;;;;;;5076829;28;20533;-88